Time;durP1;ratioP1;P1;durP2;ratioP2;P2;SDS_P1;SDS_P2;PMS_P1;PMS_P2;Temp;Humidity;BMP_temperature;BMP_pressure;BME280_temperature;BME280_humidity;BME280_pressure;Samples;Min_cycle;Max_cycle;Signal;HPM_P1;HPM_P2
2022/09/04 00:01:30;;;;;;;4.43;2.60;;;20.90;91.00;;;;;;5067629;28;45301;-74
2022/09/04 00:04:10;;;;;;;3.38;2.70;;;20.90;91.10;;;;;;5067316;28;45266;-74
2022/09/04 00:06:48;;;;;;;3.97;2.55;;;20.80;91.20;;;;;;5067201;28;45321;-74
2022/09/04 00:09:22;;;;;;;7.05;2.88;;;20.80;91.40;;;;;;5066840;28;46392;-74
2022/09/04 00:11:58;;;;;;;4.00;2.53;;;20.80;91.90;;;;;;5067295;28;45233;-74
2022/09/04 00:14:32;;;;;;;5.60;2.65;;;20.80;91.40;;;;;;5067536;28;45360;-74
2022/09/04 00:17:05;;;;;;;3.92;2.75;;;20.80;91.40;;;;;;5067045;28;45420;-74
2022/09/04 00:19:37;;;;;;;2.85;2.58;;;20.70;91.50;;;;;;5067104;28;45410;-74
2022/09/04 00:22:12;;;;;;;4.80;2.97;;;20.80;91.60;;;;;;5066787;28;46208;-74
2022/09/04 00:24:42;;;;;;;3.35;2.50;;;20.80;91.30;;;;;;5067390;28;45301;-74
2022/09/04 00:27:13;;;;;;;3.88;2.60;;;20.80;91.70;;;;;;5066790;28;45270;-74
2022/09/04 00:29:51;;;;;;;3.33;2.45;;;20.80;91.60;;;;;;5066753;28;46525;-74
2022/09/04 00:32:33;;;;;;;3.58;2.40;;;20.70;91.90;;;;;;5066883;28;45227;-74
2022/09/04 00:35:10;;;;;;;4.13;2.50;;;20.70;91.80;;;;;;5066545;28;45365;-74
2022/09/04 00:37:40;;;;;;;5.07;2.15;;;20.80;91.80;;;;;;5067043;28;45307;-74
2022/09/04 00:40:14;;;;;;;3.30;2.45;;;20.70;91.90;;;;;;5066160;28;46572;-74
2022/09/04 00:42:54;;;;;;;3.97;2.60;;;20.80;91.70;;;;;;5066252;28;46387;-74
2022/09/04 00:45:35;;;;;;;5.15;2.80;;;20.80;91.90;;;;;;5066789;28;45260;-74
2022/09/04 00:48:37;;;;;;;3.80;2.55;;;20.80;91.80;;;;;;5066669;28;45209;-74
2022/09/04 00:51:28;;;;;;;4.82;3.10;;;20.80;92.10;;;;;;5061007;28;46272;-74
2022/09/04 00:54:14;;;;;;;3.63;2.40;;;20.70;92.20;;;;;;5066382;28;45227;-74
2022/09/04 00:57:12;;;;;;;2.95;2.63;;;20.70;91.80;;;;;;5067521;28;45229;-74
2022/09/04 00:59:55;;;;;;;4.82;2.65;;;20.80;91.50;;;;;;5066579;28;45339;-74
2022/09/04 01:02:36;;;;;;;4.75;2.90;;;20.80;91.40;;;;;;5066227;28;47449;-74
2022/09/04 01:05:12;;;;;;;4.18;2.72;;;20.80;91.40;;;;;;5066348;28;45327;-74
2022/09/04 01:07:52;;;;;;;4.38;3.28;;;20.80;91.30;;;;;;5066245;28;45233;-74
2022/09/04 01:10:41;;;;;;;5.72;3.40;;;20.80;91.50;;;;;;5066388;28;45209;-74
2022/09/04 01:13:12;;;;;;;4.38;3.03;;;20.70;91.60;;;;;;5079188;28;46267;-74
2022/09/04 01:15:44;;;;;;;4.68;3.08;;;20.70;91.70;;;;;;5086491;28;45248;-74
2022/09/04 01:18:16;;;;;;;4.75;3.67;;;20.70;92.30;;;;;;5086239;28;45441;-74
2022/09/04 01:20:53;;;;;;;7.38;3.70;;;20.70;91.60;;;;;;5086206;28;45367;-74
2022/09/04 01:23:44;;;;;;;9.00;3.90;;;20.80;91.60;;;;;;5086239;28;45737;-74
2022/09/04 01:26:22;;;;;;;6.60;3.83;;;20.80;91.60;;;;;;5085922;28;45292;-74
2022/09/04 01:29:04;;;;;;;4.35;3.80;;;20.80;91.50;;;;;;5086468;28;45260;-74
2022/09/04 01:31:40;;;;;;;5.25;3.40;;;20.70;91.60;;;;;;5086505;27;45423;-74
2022/09/04 01:34:22;;;;;;;6.18;3.47;;;20.80;91.20;;;;;;5086151;28;45219;-74
2022/09/04 01:36:56;;;;;;;4.95;3.60;;;20.90;91.50;;;;;;5086011;28;45658;-74
2022/09/04 01:39:28;;;;;;;6.57;3.15;;;20.90;91.50;;;;;;5086457;28;45261;-74
2022/09/04 01:42:03;;;;;;;5.80;3.35;;;20.90;91.30;;;;;;5086328;28;45391;-72
2022/09/04 01:44:32;;;;;;;5.07;3.28;;;20.80;91.30;;;;;;5086651;28;47292;-74
2022/09/04 01:47:08;;;;;;;5.15;3.40;;;20.80;91.40;;;;;;5085813;28;45267;-74
2022/09/04 01:49:40;;;;;;;4.60;3.60;;;20.80;91.50;;;;;;5086039;28;45230;-74
2022/09/04 01:52:22;;;;;;;6.80;4.22;;;20.70;91.60;;;;;;5076807;28;45490;-74
2022/09/04 01:54:53;;;;;;;6.18;4.20;;;20.70;91.80;;;;;;5065062;28;48548;-74
2022/09/04 01:57:38;;;;;;;5.90;3.78;;;20.60;91.80;;;;;;5065033;28;45256;-74
2022/09/04 02:00:09;;;;;;;4.93;3.85;;;20.60;92.00;;;;;;5065340;28;45202;-74
2022/09/04 02:02:54;;;;;;;5.43;4.10;;;20.70;91.90;;;;;;5065516;28;45454;-75
2022/09/04 02:05:26;;;;;;;5.53;4.53;;;20.60;91.90;;;;;;5065525;28;47272;-74
2022/09/04 02:08:05;;;;;;;6.18;4.07;;;20.60;92.00;;;;;;5064946;28;45328;-74
2022/09/04 02:10:40;;;;;;;4.88;3.75;;;20.50;91.90;;;;;;5065395;28;45305;-74
2022/09/04 02:13:21;;;;;;;5.03;3.90;;;20.70;91.70;;;;;;5065132;28;45478;-74
2022/09/04 02:15:58;;;;;;;6.25;4.00;;;20.90;91.40;;;;;;5064920;28;46283;-74
2022/09/04 02:18:34;;;;;;;5.65;4.47;;;21.00;91.30;;;;;;5065399;28;45364;-74
2022/09/04 02:21:10;;;;;;;6.03;4.25;;;20.90;90.90;;;;;;5078147;28;45383;-74
2022/09/04 02:23:44;;;;;;;6.97;4.75;;;20.90;90.90;;;;;;5085512;28;45278;-74
2022/09/04 02:26:16;;;;;;;8.73;4.13;;;20.90;90.90;;;;;;5085299;28;45534;-74
2022/09/04 02:28:54;;;;;;;5.93;4.20;;;20.90;90.80;;;;;;5085535;28;45258;-74
2022/09/04 02:31:30;;;;;;;5.43;4.43;;;20.90;90.80;;;;;;5085094;28;45312;-74
2022/09/04 02:34:05;;;;;;;5.65;4.35;;;20.90;90.70;;;;;;5086451;28;45560;-71
2022/09/04 02:36:39;;;;;;;10.48;4.60;;;20.90;90.80;;;;;;5085615;28;45635;-74
2022/09/04 02:39:17;;;;;;;7.20;4.50;;;20.90;90.70;;;;;;5084827;28;45289;-74
2022/09/04 02:41:52;;;;;;;6.65;4.22;;;20.90;91.00;;;;;;5085423;28;45156;-74
2022/09/04 02:44:30;;;;;;;7.75;5.35;;;20.90;91.10;;;;;;5082321;28;45261;-74
2022/09/04 02:47:04;;;;;;;6.43;4.55;;;20.90;90.70;;;;;;5085012;28;48102;-74
2022/09/04 02:49:39;;;;;;;6.45;5.13;;;20.90;90.90;;;;;;5084921;28;46076;-74
2022/09/04 02:52:20;;;;;;;6.20;4.65;;;20.80;90.90;;;;;;5085114;28;45344;-74
2022/09/04 02:55:03;;;;;;;7.25;4.60;;;20.80;91.00;;;;;;5084847;28;45246;-74
2022/09/04 02:57:46;;;;;;;5.25;4.45;;;20.80;90.90;;;;;;5081991;28;45237;-74
2022/09/04 03:00:18;;;;;;;5.82;4.72;;;20.80;90.70;;;;;;5085071;28;45327;-74
2022/09/04 03:02:52;;;;;;;7.65;5.03;;;20.80;90.80;;;;;;5084911;28;45257;-74
2022/09/04 03:05:23;;;;;;;7.47;4.78;;;20.80;90.80;;;;;;5084930;28;45154;-75
2022/09/04 03:07:58;;;;;;;5.82;4.80;;;20.80;90.80;;;;;;5084540;28;48639;-74
2022/09/04 03:10:30;;;;;;;5.35;4.13;;;20.80;90.90;;;;;;5081435;28;45256;-74
2022/09/04 03:13:05;;;;;;;6.75;4.65;;;20.80;90.80;;;;;;5084831;28;45292;-74
2022/09/04 03:15:40;;;;;;;6.53;4.60;;;20.90;90.90;;;;;;5086755;27;45418;-74
2022/09/04 03:18:14;;;;;;;7.28;4.70;;;20.90;90.90;;;;;;5088225;28;45483;-74
2022/09/04 03:20:47;;;;;;;10.48;5.07;;;20.80;90.60;;;;;;5087770;28;46072;-74
2022/09/04 03:23:20;;;;;;;9.00;5.32;;;20.80;90.70;;;;;;5088196;28;45373;-74
2022/09/04 03:26:07;;;;;;;5.90;4.50;;;20.80;90.80;;;;;;5088875;28;45395;-69
2022/09/04 03:29:03;;;;;;;5.75;4.80;;;20.80;90.90;;;;;;5088225;28;47330;-74
2022/09/04 03:31:38;;;;;;;7.47;5.13;;;20.80;90.80;;;;;;5074058;28;45264;-74
2022/09/04 03:34:33;;;;;;;6.22;4.63;;;20.80;90.80;;;;;;5087907;28;45340;-74
2022/09/04 03:37:14;;;;;;;11.05;5.38;;;20.80;90.90;;;;;;5085348;28;45610;-74
2022/09/04 03:39:53;;;;;;;8.32;5.38;;;20.80;91.30;;;;;;5087379;28;46563;-74
2022/09/04 03:42:29;;;;;;;7.80;5.47;;;20.80;91.00;;;;;;5087708;28;45263;-74
2022/09/04 03:45:07;;;;;;;9.95;5.90;;;20.70;90.80;;;;;;5087795;28;45212;-74
2022/09/04 03:47:44;;;;;;;5.60;4.75;;;20.70;91.00;;;;;;5087627;28;45572;-73
2022/09/04 03:50:22;;;;;;;6.90;5.65;;;20.80;91.10;;;;;;5087514;28;46072;-74
2022/09/04 03:53:01;;;;;;;7.38;5.55;;;20.70;90.90;;;;;;5086880;28;45213;-74
2022/09/04 03:55:56;;;;;;;8.35;6.10;;;20.70;90.70;;;;;;5087785;28;45304;-74
2022/09/04 03:58:27;;;;;;;8.48;5.63;;;20.80;90.70;;;;;;5087058;28;45217;-74
2022/09/04 04:01:04;;;;;;;8.18;5.47;;;20.80;90.80;;;;;;5087372;28;47031;-74
2022/09/04 04:04:02;;;;;;;10.38;6.07;;;20.70;91.00;;;;;;5070403;28;45320;-74
2022/09/04 04:06:37;;;;;;;8.18;5.82;;;20.70;91.20;;;;;;5067235;28;45262;-74
2022/09/04 04:09:36;;;;;;;8.20;6.45;;;20.60;91.30;;;;;;5066658;28;45388;-74
2022/09/04 04:12:26;;;;;;;8.43;5.90;;;20.60;91.20;;;;;;5059617;28;46606;-74
2022/09/04 04:15:04;;;;;;;8.07;6.00;;;20.70;91.10;;;;;;5066585;28;45201;-74
2022/09/04 04:17:52;;;;;;;8.35;5.75;;;20.80;90.90;;;;;;5067305;28;45343;-71
2022/09/04 04:20:33;;;;;;;7.53;4.97;;;20.70;91.20;;;;;;5065223;28;45406;-74
2022/09/04 04:23:16;;;;;;;8.02;5.47;;;20.80;90.90;;;;;;5066421;28;45299;-74
2022/09/04 04:25:58;;;;;;;7.07;5.07;;;20.80;91.00;;;;;;5066368;28;45193;-74
2022/09/04 04:28:42;;;;;;;7.72;5.15;;;20.70;91.40;;;;;;5066290;28;45292;-74
2022/09/04 04:31:20;;;;;;;8.80;4.80;;;20.70;91.00;;;;;;5066590;28;45364;-74
2022/09/04 04:33:59;;;;;;;7.15;4.90;;;20.70;91.00;;;;;;5066627;28;47080;-74
2022/09/04 04:36:36;;;;;;;6.40;4.60;;;20.70;90.90;;;;;;5066281;28;45357;-74
2022/09/04 04:39:13;;;;;;;7.57;4.35;;;20.70;91.20;;;;;;5066156;28;45335;-74
2022/09/04 04:42:06;;;;;;;5.72;4.20;;;20.70;91.10;;;;;;5066522;28;45179;-74
2022/09/04 04:47:51;;;;;;;6.70;4.22;;;20.70;90.90;;;;;;5066061;28;45276;-74
2022/09/04 04:50:26;;;;;;;5.78;4.40;;;20.70;91.00;;;;;;5066089;28;45371;-74
2022/09/04 04:53:02;;;;;;;7.47;4.70;;;20.80;90.80;;;;;;5065653;28;45431;-73
2022/09/04 04:55:38;;;;;;;8.95;4.80;;;20.70;91.00;;;;;;5065662;28;45433;-74
2022/09/04 04:58:36;;;;;;;6.45;4.88;;;20.70;91.00;;;;;;5065668;28;45347;-74
2022/09/04 05:01:14;;;;;;;5.80;4.63;;;20.70;91.10;;;;;;5065671;28;45472;-74
2022/09/04 05:03:53;;;;;;;5.55;4.07;;;20.70;91.10;;;;;;5066351;28;45269;-74
2022/09/04 05:06:28;;;;;;;7.05;4.72;;;20.60;91.10;;;;;;5065682;28;46993;-74
2022/09/04 05:09:07;;;;;;;7.30;4.40;;;20.60;91.20;;;;;;5066073;28;45442;-74
2022/09/04 05:11:43;;;;;;;6.03;4.72;;;20.60;91.30;;;;;;5065885;28;45321;-74
2022/09/04 05:14:24;;;;;;;5.80;4.15;;;20.60;91.30;;;;;;5065900;28;45322;-74
2022/09/04 05:16:56;;;;;;;5.03;4.10;;;20.50;91.40;;;;;;5065284;28;48261;-74
2022/09/04 05:19:31;;;;;;;6.13;4.30;;;20.60;91.30;;;;;;5065260;28;45340;-73
2022/09/04 05:22:05;;;;;;;5.82;3.67;;;20.60;91.40;;;;;;5065804;28;45451;-74
2022/09/04 05:24:37;;;;;;;5.15;3.75;;;20.60;91.60;;;;;;5065893;28;45288;-74
2022/09/04 05:27:12;;;;;;;4.57;3.63;;;20.70;91.10;;;;;;5065456;28;48340;-74
2022/09/04 05:29:50;;;;;;;4.88;3.90;;;20.70;91.20;;;;;;5065579;28;45316;-73
2022/09/04 05:32:23;;;;;;;5.43;4.10;;;20.70;91.10;;;;;;5065266;28;45394;-74
2022/09/04 05:35:03;;;;;;;7.63;4.13;;;20.80;90.90;;;;;;5062540;28;45353;-74
2022/09/04 05:37:36;;;;;;;5.80;4.00;;;20.70;91.10;;;;;;5061961;28;45402;-73
2022/09/04 05:40:11;;;;;;;6.93;4.65;;;20.80;91.00;;;;;;5065240;28;45790;-74
2022/09/04 05:42:44;;;;;;;7.00;4.30;;;20.70;91.40;;;;;;5065142;28;45205;-74
2022/09/04 05:45:21;;;;;;;7.07;4.57;;;20.50;91.70;;;;;;5065365;28;45436;-74
2022/09/04 05:47:58;;;;;;;6.82;4.13;;;20.40;92.00;;;;;;5065364;28;45360;-74
2022/09/04 05:50:59;;;;;;;5.82;4.13;;;20.30;92.20;;;;;;5064733;28;46079;-74
2022/09/04 05:53:41;;;;;;;5.65;4.15;;;20.30;92.20;;;;;;5021056;28;45495;-74
2022/09/04 05:56:27;;;;;;;10.63;4.22;;;20.40;92.30;;;;;;5065029;28;45416;-74
2022/09/04 05:59:46;;;;;;;6.25;4.35;;;20.40;92.10;;;;;;5064611;28;48278;-74
2022/09/04 06:02:56;;;;;;;6.00;4.05;;;20.50;92.00;;;;;;4983917;28;45289;-72
2022/09/04 06:05:37;;;;;;;7.70;4.22;;;20.40;92.10;;;;;;4968634;28;45399;-74
2022/09/04 06:08:19;;;;;;;7.45;4.40;;;20.50;92.20;;;;;;5051196;28;45536;-74
2022/09/04 06:10:53;;;;;;;6.18;4.28;;;20.40;92.20;;;;;;5064912;28;46208;-74
2022/09/04 06:14:00;;;;;;;4.13;3.35;;;20.40;92.30;;;;;;5064853;28;45478;-74
2022/09/04 06:16:49;;;;;;;7.20;4.28;;;20.60;92.20;;;;;;4983656;28;45455;-74
2022/09/04 06:19:48;;;;;;;4.97;3.97;;;20.50;91.90;;;;;;4982663;28;45383;-73
2022/09/04 06:22:36;;;;;;;5.13;4.00;;;20.50;92.20;;;;;;5051874;28;46629;-74
2022/09/04 06:25:24;;;;;;;5.20;3.83;;;20.50;92.20;;;;;;5064548;28;45750;-74
2022/09/04 06:28:27;;;;;;;7.65;4.72;;;20.60;92.00;;;;;;5064739;28;45277;-73
2022/09/04 06:31:04;;;;;;;5.28;4.20;;;20.70;91.80;;;;;;5047360;28;45206;-74
2022/09/04 06:33:53;;;;;;;8.93;3.90;;;20.70;91.70;;;;;;5064590;28;45347;-74
2022/09/04 06:36:38;;;;;;;7.07;3.95;;;20.70;91.80;;;;;;5064386;28;45670;-74
2022/09/04 06:39:26;;;;;;;5.78;3.80;;;20.70;92.10;;;;;;5064071;28;45305;-74
2022/09/04 06:42:06;;;;;;;3.90;3.40;;;20.80;91.20;;;;;;5064314;28;45459;-73
2022/09/04 06:44:43;;;;;;;4.97;3.50;;;20.90;91.30;;;;;;5063808;28;47102;-73
2022/09/04 06:47:21;;;;;;;5.30;3.92;;;20.90;91.30;;;;;;5063886;28;45248;-74
2022/09/04 06:50:04;;;;;;;5.85;3.78;;;20.90;91.40;;;;;;5064535;28;45225;-74
2022/09/04 06:52:40;;;;;;;3.67;2.80;;;20.80;91.50;;;;;;5067752;28;45339;-71
2022/09/04 06:55:14;;;;;;;5.25;3.30;;;21.00;91.10;;;;;;5067955;28;47107;-73
2022/09/04 06:58:06;;;;;;;4.22;3.35;;;21.00;91.40;;;;;;5067185;28;45903;-74
2022/09/04 07:00:39;;;;;;;7.45;3.95;;;21.00;91.50;;;;;;5067509;28;45433;-74
2022/09/04 07:03:24;;;;;;;5.22;3.28;;;21.00;91.60;;;;;;5067755;28;45448;-74
2022/09/04 07:05:58;;;;;;;6.18;3.47;;;21.00;91.20;;;;;;5067050;28;46379;-74
2022/09/04 07:08:39;;;;;;;4.03;3.40;;;21.00;91.40;;;;;;5067688;28;45255;-74
2022/09/04 07:11:18;;;;;;;4.05;2.88;;;21.10;91.30;;;;;;5067813;28;45293;-74
2022/09/04 07:14:03;;;;;;;4.78;3.25;;;21.30;90.80;;;;;;5067744;28;45204;-75
2022/09/04 07:16:40;;;;;;;4.57;3.33;;;21.30;91.00;;;;;;5067306;28;45446;-73
2022/09/04 07:19:32;;;;;;;5.75;3.30;;;21.40;90.60;;;;;;5067548;28;45237;-74
2022/09/04 07:22:15;;;;;;;6.50;3.15;;;21.40;90.80;;;;;;5067526;28;45261;-74
2022/09/04 07:25:04;;;;;;;5.55;2.92;;;21.40;90.90;;;;;;5067240;28;45599;-74
2022/09/04 07:27:44;;;;;;;4.75;3.00;;;21.40;90.90;;;;;;5083726;28;47421;-74
2022/09/04 07:30:13;;;;;;;4.45;3.25;;;21.40;90.60;;;;;;5087634;28;45506;-74
2022/09/04 07:32:48;;;;;;;3.95;2.90;;;21.50;90.80;;;;;;5087679;28;45279;-74
2022/09/04 07:35:20;;;;;;;6.88;2.80;;;21.40;91.20;;;;;;5088128;28;45284;-74
2022/09/04 07:37:55;;;;;;;7.90;2.80;;;21.50;91.10;;;;;;5087352;28;47576;-74
2022/09/04 07:40:25;;;;;;;3.38;2.70;;;21.50;90.60;;;;;;5087277;28;45286;-74
2022/09/04 07:42:59;;;;;;;4.28;2.50;;;21.50;90.60;;;;;;5087435;28;45238;-75
2022/09/04 07:45:31;;;;;;;3.40;2.60;;;21.60;90.30;;;;;;5088516;28;45188;-74
2022/09/04 07:48:08;;;;;;;4.13;2.70;;;21.70;90.30;;;;;;5087297;28;47948;-74
2022/09/04 07:51:03;;;;;;;3.88;2.10;;;21.60;90.20;;;;;;5087815;28;45234;-74
2022/09/04 07:53:53;;;;;;;3.88;2.47;;;21.80;89.90;;;;;;5087510;28;45217;-74
2022/09/04 07:56:29;;;;;;;2.53;2.00;;;21.80;89.60;;;;;;5087279;28;45539;-74
2022/09/04 07:59:25;;;;;;;4.90;2.38;;;21.80;89.80;;;;;;5086731;28;48350;-74
2022/09/04 08:02:13;;;;;;;2.60;1.77;;;21.80;89.50;;;;;;5084119;28;45373;-74
2022/09/04 08:05:10;;;;;;;3.88;2.05;;;21.80;88.50;;;;;;5084454;28;45313;-74
2022/09/04 08:08:03;;;;;;;2.88;2.17;;;21.90;89.40;;;;;;5087337;28;45555;-75
2022/09/04 08:10:33;;;;;;;3.97;2.25;;;21.90;89.10;;;;;;5086934;28;46859;-75
2022/09/04 08:13:25;;;;;;;3.47;1.70;;;21.90;89.60;;;;;;5087023;28;45328;-74
2022/09/04 08:16:02;;;;;;;3.92;2.30;;;21.90;90.00;;;;;;5087540;28;45238;-74
2022/09/04 08:18:52;;;;;;;4.80;2.63;;;21.70;90.40;;;;;;5087469;28;45340;-74
2022/09/04 08:21:26;;;;;;;3.90;2.20;;;21.80;90.30;;;;;;5086918;28;45490;-74
2022/09/04 08:24:17;;;;;;;7.65;1.90;;;21.80;90.60;;;;;;5086954;28;45193;-74
2022/09/04 08:26:53;;;;;;;5.40;2.05;;;21.80;89.90;;;;;;5087087;28;45343;-74
2022/09/04 08:29:39;;;;;;;3.97;2.33;;;21.90;90.00;;;;;;5087157;28;45360;-74
2022/09/04 08:32:19;;;;;;;4.53;2.22;;;21.90;90.00;;;;;;5086801;28;46740;-74
2022/09/04 08:35:09;;;;;;;4.35;2.40;;;21.90;89.80;;;;;;5086544;28;45306;-74
2022/09/04 08:37:52;;;;;;;3.60;2.10;;;21.90;89.40;;;;;;5087784;28;45245;-71
2022/09/04 08:41:07;;;;;;;2.10;1.55;;;21.90;89.60;;;;;;5086777;28;45182;-74
2022/09/04 08:43:56;;;;;;;2.90;1.73;;;21.90;89.40;;;;;;5086655;28;47798;-74
2022/09/04 08:46:57;;;;;;;3.08;1.88;;;22.00;89.20;;;;;;5086739;28;45560;-74
2022/09/04 08:49:54;;;;;;;2.97;1.60;;;22.10;88.90;;;;;;5086664;28;45280;-74
2022/09/04 08:52:49;;;;;;;4.63;1.75;;;22.10;87.60;;;;;;5086888;28;45569;-74
2022/09/04 08:55:39;;;;;;;1.60;1.20;;;22.10;87.30;;;;;;5086241;28;46592;-74
2022/09/04 08:58:51;;;;;;;2.33;1.30;;;22.10;86.70;;;;;;5086550;28;45247;-74
2022/09/04 09:01:48;;;;;;;3.95;1.40;;;22.20;86.70;;;;;;5038035;28;45331;-74
2022/09/04 09:04:58;;;;;;;4.10;1.10;;;22.20;87.00;;;;;;5086922;28;45185;-74
2022/09/04 09:07:50;;;;;;;3.55;1.30;;;22.20;86.60;;;;;;5086173;28;45438;-74
2022/09/04 09:10:36;;;;;;;2.60;1.20;;;22.20;86.30;;;;;;5086398;28;45289;-74
2022/09/04 09:13:49;;;;;;;3.03;1.20;;;22.20;86.20;;;;;;5085815;27;45260;-74
2022/09/04 09:16:24;;;;;;;1.52;1.00;;;22.30;86.90;;;;;;5086596;28;45134;-74
2022/09/04 09:19:09;;;;;;;2.22;1.30;;;22.30;86.10;;;;;;5085980;28;46552;-75
2022/09/04 09:21:44;;;;;;;1.38;1.25;;;22.30;86.30;;;;;;5085959;28;46650;-74
2022/09/04 09:24:45;;;;;;;3.10;1.00;;;22.30;86.40;;;;;;5086115;28;45261;-74
2022/09/04 09:27:42;;;;;;;1.13;1.00;;;22.40;85.50;;;;;;5086099;28;45308;-74
2022/09/04 09:30:16;;;;;;;1.60;1.30;;;22.30;85.80;;;;;;5086770;28;47435;-74
2022/09/04 09:33:19;;;;;;;1.58;0.85;;;22.40;85.90;;;;;;5085797;28;45223;-74
2022/09/04 09:36:06;;;;;;;4.45;1.17;;;22.40;84.50;;;;;;5085871;28;45284;-74
2022/09/04 09:39:07;;;;;;;1.35;1.10;;;22.50;84.00;;;;;;5085500;28;45642;-74
2022/09/04 09:42:12;;;;;;;1.13;0.90;;;22.50;84.20;;;;;;5084126;28;46236;-74
2022/09/04 09:45:25;;;;;;;1.55;0.98;;;22.50;85.00;;;;;;5085722;28;45436;-74
2022/09/04 09:48:37;;;;;;;2.85;0.90;;;22.50;84.70;;;;;;5086325;28;45132;-74
2022/09/04 09:51:33;;;;;;;4.03;1.10;;;22.50;84.30;;;;;;5086252;28;45071;-74
2022/09/04 09:54:45;;;;;;;1.45;0.85;;;22.50;83.60;;;;;;5085275;28;46620;-74
2022/09/04 09:57:38;;;;;;;4.05;1.08;;;22.60;83.20;;;;;;5085201;28;46057;-74
2022/09/04 10:00:12;;;;;;;1.45;0.90;;;22.50;83.30;;;;;;5048062;28;45265;-74
2022/09/04 10:03:26;;;;;;;4.68;1.00;;;22.50;83.30;;;;;;5085722;28;45318;-74
2022/09/04 10:06:21;;;;;;;1.73;1.00;;;22.50;82.50;;;;;;5085776;28;47325;-74
2022/09/04 10:09:16;;;;;;;1.55;0.90;;;22.60;82.80;;;;;;5082458;28;45275;-74
2022/09/04 10:12:16;;;;;;;1.45;0.90;;;22.60;81.60;;;;;;5085447;28;45123;-74
2022/09/04 10:15:15;;;;;;;2.28;0.80;;;22.60;82.40;;;;;;5085614;28;45241;-74
2022/09/04 10:18:26;;;;;;;3.20;0.70;;;22.60;82.40;;;;;;5085167;28;46549;-75
2022/09/04 10:21:12;;;;;;;2.65;0.90;;;22.60;81.80;;;;;;5021759;28;45917;-74
2022/09/04 10:24:06;;;;;;;2.92;1.27;;;22.70;81.60;;;;;;5085831;27;45327;-74
2022/09/04 10:27:18;;;;;;;1.75;0.95;;;22.80;80.70;;;;;;5089048;28;45376;-74
2022/09/04 10:29:59;;;;;;;2.30;1.05;;;22.90;80.70;;;;;;5006784;28;48333;-74
2022/09/04 10:33:17;;;;;;;1.02;0.80;;;22.90;80.70;;;;;;5088881;28;45223;-74
2022/09/04 10:36:03;;;;;;;0.95;0.80;;;22.80;81.20;;;;;;5088971;28;45290;-74
2022/09/04 10:40:34;;;;;;;1.17;1.02;;;22.70;81.00;;;;;;5088742;28;45653;-74
2022/09/04 10:42:05;;;;;;;0.95;0.85;;;22.70;82.20;;;;;;5087939;28;46398;-74
2022/09/04 10:44:50;;;;;;;3.17;0.95;;;22.70;81.90;;;;;;5088560;28;45896;-74
2022/09/04 10:47:36;;;;;;;4.03;1.17;;;22.90;81.70;;;;;;5088808;28;45394;-74
2022/09/04 10:50:20;;;;;;;3.63;1.25;;;23.00;80.80;;;;;;5088988;28;45370;-74
2022/09/04 10:53:14;;;;;;;2.65;1.10;;;22.90;81.50;;;;;;5088423;28;45459;-74
2022/09/04 10:55:58;;;;;;;7.20;1.05;;;22.80;81.00;;;;;;5088595;28;45402;-74
2022/09/04 10:58:38;;;;;;;4.38;1.20;;;22.80;81.70;;;;;;5088248;28;45275;-75
2022/09/04 11:01:37;;;;;;;1.77;1.00;;;22.90;80.70;;;;;;5088499;28;45434;-74
2022/09/04 11:04:29;;;;;;;4.60;1.02;;;23.10;79.90;;;;;;5088290;28;47906;-74
2022/09/04 11:07:19;;;;;;;3.45;0.88;;;23.10;79.90;;;;;;5088025;28;45308;-74
2022/09/04 11:10:13;;;;;;;3.03;1.20;;;23.10;79.80;;;;;;5088420;28;45252;-74
2022/09/04 11:12:51;;;;;;;1.08;0.98;;;23.10;79.90;;;;;;5085853;28;45224;-73
2022/09/04 11:15:58;;;;;;;2.78;0.93;;;23.00;80.20;;;;;;5085523;28;45196;-74
2022/09/04 11:18:50;;;;;;;2.65;1.15;;;23.00;80.80;;;;;;5088098;28;45227;-75
2022/09/04 11:21:45;;;;;;;1.42;0.90;;;22.90;81.90;;;;;;5088739;28;45312;-74
2022/09/04 11:24:58;;;;;;;2.40;1.10;;;22.80;80.70;;;;;;5085665;28;45197;-74
2022/09/04 11:27:50;;;;;;;1.27;0.95;;;22.90;80.70;;;;;;5087932;28;47631;-74
2022/09/04 11:30:19;;;;;;;2.78;0.90;;;22.90;80.10;;;;;;5088195;28;45334;-74
2022/09/04 11:33:01;;;;;;;1.88;0.90;;;22.90;78.60;;;;;;5088084;28;45342;-74
2022/09/04 11:36:05;;;;;;;2.08;1.25;;;23.00;80.10;;;;;;5087916;28;45124;-75
2022/09/04 11:39:03;;;;;;;1.63;1.20;;;23.10;78.90;;;;;;5087694;28;47791;-74
2022/09/04 11:41:56;;;;;;;4.30;1.17;;;23.10;79.20;;;;;;5088352;28;45246;-74
2022/09/04 11:45:02;;;;;;;3.35;1.20;;;23.10;79.10;;;;;;5088349;28;45275;-74
2022/09/04 11:47:49;;;;;;;1.60;0.80;;;23.10;77.90;;;;;;5088241;28;45248;-74
2022/09/04 11:50:33;;;;;;;2.40;0.85;;;23.10;79.30;;;;;;5087426;28;46789;-74
2022/09/04 11:53:18;;;;;;;1.55;0.65;;;22.90;79.20;;;;;;5087620;28;45405;-74
2022/09/04 11:56:15;;;;;;;2.92;1.17;;;22.90;77.70;;;;;;5087838;28;45302;-74
2022/09/04 11:59:12;;;;;;;1.65;1.00;;;23.00;77.30;;;;;;5087900;28;45367;-75
2022/09/04 12:02:02;;;;;;;2.10;0.90;;;22.90;76.60;;;;;;5087686;28;47148;-75
2022/09/04 12:04:49;;;;;;;1.08;0.70;;;23.00;78.40;;;;;;5088594;28;45217;-74
2022/09/04 12:07:33;;;;;;;3.03;0.80;;;22.90;77.00;;;;;;5088203;28;45331;-74
2022/09/04 12:10:22;;;;;;;0.88;0.70;;;22.90;76.50;;;;;;5087701;28;45777;-74
2022/09/04 12:13:14;;;;;;;0.70;0.60;;;23.00;76.30;;;;;;5087249;28;46502;-74
2022/09/04 12:16:20;;;;;;;1.33;0.70;;;22.90;76.40;;;;;;5087224;28;46001;-74
2022/09/04 12:19:19;;;;;;;1.35;0.70;;;22.90;76.00;;;;;;5077120;28;45428;-74
2022/09/04 12:22:14;;;;;;;0.95;0.70;;;22.90;76.40;;;;;;5042805;28;45378;-74
2022/09/04 12:25:18;;;;;;;0.80;0.55;;;22.90;76.70;;;;;;5087020;28;48397;-74
2022/09/04 12:28:09;;;;;;;0.80;0.70;;;22.90;76.80;;;;;;5087206;28;45284;-74
2022/09/04 12:30:48;;;;;;;5.85;0.70;;;22.90;75.60;;;;;;5086990;28;45348;-74
2022/09/04 12:33:41;;;;;;;4.00;0.88;;;23.00;74.90;;;;;;5086740;28;45504;-74
2022/09/04 12:36:33;;;;;;;2.53;0.90;;;23.10;72.00;;;;;;5087130;28;47140;-74
2022/09/04 12:39:49;;;;;;;1.50;0.90;;;23.20;71.20;;;;;;5086944;28;45248;-74
2022/09/04 12:42:21;;;;;;;2.55;1.00;;;23.20;71.00;;;;;;5004715;28;45314;-74
2022/09/04 12:44:58;;;;;;;2.17;1.10;;;23.20;69.90;;;;;;5070560;28;45206;-74
2022/09/04 12:47:40;;;;;;;1.27;1.10;;;23.30;71.10;;;;;;5085920;28;47714;-74
2022/09/04 12:50:18;;;;;;;1.70;1.13;;;23.20;69.20;;;;;;5086376;28;45840;-74
2022/09/04 12:53:03;;;;;;;0.80;0.80;;;23.20;69.50;;;;;;5086795;28;45379;-75
2022/09/04 12:55:39;;;;;;;0.93;0.80;;;23.20;71.40;;;;;;5087363;28;45200;-74
2022/09/04 12:58:20;;;;;;;1.05;0.70;;;23.10;72.40;;;;;;5086727;28;45442;-73
2022/09/04 13:00:59;;;;;;;2.70;0.73;;;23.10;72.90;;;;;;5086721;28;45257;-74
2022/09/04 13:03:31;;;;;;;1.15;0.70;;;23.00;73.30;;;;;;5086652;28;45486;-74
2022/09/04 13:06:17;;;;;;;0.57;0.57;;;23.00;73.50;;;;;;5083692;28;45245;-74
2022/09/04 13:08:57;;;;;;;0.85;0.70;;;23.00;73.50;;;;;;5086683;28;47258;-74
2022/09/04 13:11:40;;;;;;;0.50;0.50;;;23.00;73.80;;;;;;5086678;28;45245;-74
2022/09/04 13:14:30;;;;;;;1.33;0.88;;;23.00;73.80;;;;;;5083538;28;45229;-74
2022/09/04 13:17:03;;;;;;;1.13;0.75;;;23.00;74.30;;;;;;5086842;28;45436;-74
2022/09/04 13:19:44;;;;;;;1.23;0.90;;;23.00;71.80;;;;;;5085825;28;46578;-74
2022/09/04 13:22:24;;;;;;;2.50;1.00;;;23.20;69.50;;;;;;5086399;28;45370;-74
2022/09/04 13:25:03;;;;;;;3.45;0.85;;;23.30;68.40;;;;;;5086439;28;45136;-74
2022/09/04 13:27:42;;;;;;;1.30;1.10;;;23.30;65.90;;;;;;5086390;28;45414;-74
2022/09/04 13:30:20;;;;;;;4.85;1.00;;;23.40;66.20;;;;;;5085900;28;45348;-74
2022/09/04 13:33:22;;;;;;;1.92;1.02;;;23.40;64.90;;;;;;5086353;28;45317;-74
2022/09/04 13:36:00;;;;;;;2.72;1.20;;;23.40;65.60;;;;;;5086475;28;45222;-74
2022/09/04 13:38:50;;;;;;;2.47;1.10;;;23.40;64.80;;;;;;5086214;28;45298;-74
2022/09/04 13:41:45;;;;;;;3.20;1.13;;;23.30;68.10;;;;;;5082611;28;45377;-74
2022/09/04 13:44:27;;;;;;;3.72;1.20;;;23.30;64.80;;;;;;5085777;28;45283;-74
2022/09/04 13:47:02;;;;;;;1.58;1.20;;;23.30;66.30;;;;;;5085629;28;45226;-74
2022/09/04 13:49:36;;;;;;;1.67;0.95;;;23.20;68.20;;;;;;5085906;28;45269;-73
2022/09/04 13:52:08;;;;;;;4.72;1.15;;;23.20;65.40;;;;;;5085797;28;45580;-74
2022/09/04 13:54:39;;;;;;;1.38;1.10;;;23.10;67.00;;;;;;5084777;28;45486;-74
2022/09/04 13:57:10;;;;;;;1.80;1.20;;;23.10;69.10;;;;;;5082273;28;45683;-74
2022/09/04 13:59:37;;;;;;;2.33;1.35;;;23.10;70.50;;;;;;5085425;28;45240;-74
2022/09/04 14:02:12;;;;;;;1.48;0.80;;;23.00;71.10;;;;;;5085198;28;48366;-74
2022/09/04 14:04:43;;;;;;;0.70;0.70;;;23.10;71.20;;;;;;5085368;28;45281;-74
2022/09/04 14:07:18;;;;;;;1.15;1.00;;;23.00;70.20;;;;;;5085185;28;45288;-74
2022/09/04 14:09:47;;;;;;;0.82;0.80;;;23.10;69.60;;;;;;5085831;28;45301;-74
2022/09/04 14:12:37;;;;;;;5.10;0.90;;;23.10;69.40;;;;;;5085519;28;45408;-74
2022/09/04 14:15:27;;;;;;;0.73;0.73;;;23.10;70.00;;;;;;5081903;28;45373;-74